sensor_id;sensor_type;location;lat;lon;timestamp;P1;durP1;ratioP1;P2;durP2;ratioP2
62052;SDS011;48300;52.902;6.534;2023-10-31T00:00:49;6.05;;;3.17;;
62052;SDS011;48300;52.902;6.534;2023-10-31T00:03:15;3.90;;;2.70;;
62052;SDS011;48300;52.902;6.534;2023-10-31T00:05:41;14.57;;;2.88;;
62052;SDS011;48300;52.902;6.534;2023-10-31T00:08:08;6.15;;;2.58;;
62052;SDS011;48300;52.902;6.534;2023-10-31T00:10:34;4.85;;;2.67;;
62052;SDS011;48300;52.902;6.534;2023-10-31T00:13:00;3.72;;;2.22;;
62052;SDS011;48300;52.902;6.534;2023-10-31T00:15:26;4.00;;;2.17;;
62052;SDS011;48300;52.902;6.534;2023-10-31T00:17:54;3.95;;;1.85;;
62052;SDS011;48300;52.902;6.534;2023-10-31T00:20:20;2.97;;;1.52;;
62052;SDS011;48300;52.902;6.534;2023-10-31T00:22:46;3.92;;;1.73;;
62052;SDS011;48300;52.902;6.534;2023-10-31T00:25:12;4.82;;;1.25;;
62052;SDS011;48300;52.902;6.534;2023-10-31T00:27:38;3.00;;;1.17;;
62052;SDS011;48300;52.902;6.534;2023-10-31T00:30:04;2.50;;;1.00;;
62052;SDS011;48300;52.902;6.534;2023-10-31T00:32:30;3.10;;;1.17;;
62052;SDS011;48300;52.902;6.534;2023-10-31T00:34:56;1.70;;;0.90;;
62052;SDS011;48300;52.902;6.534;2023-10-31T00:37:22;1.25;;;0.88;;
62052;SDS011;48300;52.902;6.534;2023-10-31T00:39:48;4.70;;;1.20;;
62052;SDS011;48300;52.902;6.534;2023-10-31T00:42:14;2.58;;;1.30;;
62052;SDS011;48300;52.902;6.534;2023-10-31T00:44:40;2.05;;;1.30;;
62052;SDS011;48300;52.902;6.534;2023-10-31T00:47:06;1.92;;;1.27;;
62052;SDS011;48300;52.902;6.534;2023-10-31T00:49:32;3.05;;;1.38;;
62052;SDS011;48300;52.902;6.534;2023-10-31T00:51:58;1.90;;;1.42;;
62052;SDS011;48300;52.902;6.534;2023-10-31T00:54:24;1.60;;;1.20;;
62052;SDS011;48300;52.902;6.534;2023-10-31T00:56:50;1.77;;;0.90;;
62052;SDS011;48300;52.902;6.534;2023-10-31T00:59:16;1.75;;;0.88;;
62052;SDS011;48300;52.902;6.534;2023-10-31T01:01:42;4.32;;;0.80;;
62052;SDS011;48300;52.902;6.534;2023-10-31T01:04:08;3.15;;;0.60;;
62052;SDS011;48300;52.902;6.534;2023-10-31T01:06:39;2.25;;;0.50;;
62052;SDS011;48300;52.902;6.534;2023-10-31T01:09:05;3.40;;;0.50;;
62052;SDS011;48300;52.902;6.534;2023-10-31T01:11:31;3.03;;;0.30;;
62052;SDS011;48300;52.902;6.534;2023-10-31T01:13:57;0.98;;;0.30;;
62052;SDS011;48300;52.902;6.534;2023-10-31T01:16:23;0.88;;;0.30;;
62052;SDS011;48300;52.902;6.534;2023-10-31T01:18:49;1.80;;;0.45;;
62052;SDS011;48300;52.902;6.534;2023-10-31T01:21:15;4.20;;;0.32;;
62052;SDS011;48300;52.902;6.534;2023-10-31T01:23:41;5.03;;;0.65;;
62052;SDS011;48300;52.902;6.534;2023-10-31T01:26:07;4.00;;;0.40;;
62052;SDS011;48300;52.902;6.534;2023-10-31T01:28:33;0.95;;;0.40;;
62052;SDS011;48300;52.902;6.534;2023-10-31T01:30:59;3.15;;;0.30;;
62052;SDS011;48300;52.902;6.534;2023-10-31T01:33:25;1.27;;;0.30;;
62052;SDS011;48300;52.902;6.534;2023-10-31T01:35:51;2.72;;;0.20;;
62052;SDS011;48300;52.902;6.534;2023-10-31T01:38:17;1.05;;;0.20;;
62052;SDS011;48300;52.902;6.534;2023-10-31T01:40:43;2.35;;;0.30;;
62052;SDS011;48300;52.902;6.534;2023-10-31T01:43:10;4.30;;;0.40;;
62052;SDS011;48300;52.902;6.534;2023-10-31T01:45:36;3.33;;;0.30;;
62052;SDS011;48300;52.902;6.534;2023-10-31T01:48:02;5.25;;;0.43;;
62052;SDS011;48300;52.902;6.534;2023-10-31T01:50:28;1.75;;;0.20;;
62052;SDS011;48300;52.902;6.534;2023-10-31T01:52:54;3.80;;;0.40;;
62052;SDS011;48300;52.902;6.534;2023-10-31T01:55:20;5.38;;;0.30;;
62052;SDS011;48300;52.902;6.534;2023-10-31T01:57:47;1.40;;;0.50;;
62052;SDS011;48300;52.902;6.534;2023-10-31T02:00:14;2.00;;;0.45;;
62052;SDS011;48300;52.902;6.534;2023-10-31T02:02:40;2.58;;;0.40;;
62052;SDS011;48300;52.902;6.534;2023-10-31T02:05:09;2.40;;;0.30;;
62052;SDS011;48300;52.902;6.534;2023-10-31T02:07:35;2.03;;;0.40;;
62052;SDS011;48300;52.902;6.534;2023-10-31T02:10:01;3.25;;;0.30;;
62052;SDS011;48300;52.902;6.534;2023-10-31T02:12:34;2.13;;;0.50;;
62052;SDS011;48300;52.902;6.534;2023-10-31T02:15:00;6.70;;;0.70;;
62052;SDS011;48300;52.902;6.534;2023-10-31T02:17:27;1.92;;;0.50;;
62052;SDS011;48300;52.902;6.534;2023-10-31T02:19:53;3.10;;;0.60;;
62052;SDS011;48300;52.902;6.534;2023-10-31T02:22:19;2.90;;;0.63;;
62052;SDS011;48300;52.902;6.534;2023-10-31T02:24:45;1.88;;;0.60;;
62052;SDS011;48300;52.902;6.534;2023-10-31T02:27:11;4.03;;;0.60;;
62052;SDS011;48300;52.902;6.534;2023-10-31T02:29:39;1.52;;;0.45;;
62052;SDS011;48300;52.902;6.534;2023-10-31T02:32:05;2.13;;;0.57;;
62052;SDS011;48300;52.902;6.534;2023-10-31T02:34:31;5.35;;;0.70;;
62052;SDS011;48300;52.902;6.534;2023-10-31T02:36:58;3.40;;;0.60;;
62052;SDS011;48300;52.902;6.534;2023-10-31T02:39:24;4.25;;;0.82;;
62052;SDS011;48300;52.902;6.534;2023-10-31T02:41:50;6.95;;;1.10;;
62052;SDS011;48300;52.902;6.534;2023-10-31T02:44:16;3.83;;;1.10;;
62052;SDS011;48300;52.902;6.534;2023-10-31T02:46:42;3.25;;;0.90;;
62052;SDS011;48300;52.902;6.534;2023-10-31T02:49:08;6.35;;;1.10;;
62052;SDS011;48300;52.902;6.534;2023-10-31T02:51:35;3.08;;;0.80;;
62052;SDS011;48300;52.902;6.534;2023-10-31T02:54:01;4.35;;;0.90;;
62052;SDS011;48300;52.902;6.534;2023-10-31T02:56:26;6.13;;;1.13;;
62052;SDS011;48300;52.902;6.534;2023-10-31T02:58:53;4.97;;;1.13;;
62052;SDS011;48300;52.902;6.534;2023-10-31T03:01:19;4.53;;;1.40;;
62052;SDS011;48300;52.902;6.534;2023-10-31T03:03:45;3.83;;;1.52;;
62052;SDS011;48300;52.902;6.534;2023-10-31T03:06:11;5.57;;;1.40;;
62052;SDS011;48300;52.902;6.534;2023-10-31T03:08:37;3.28;;;1.35;;
62052;SDS011;48300;52.902;6.534;2023-10-31T03:11:03;7.18;;;2.70;;
62052;SDS011;48300;52.902;6.534;2023-10-31T03:13:30;4.25;;;1.40;;
62052;SDS011;48300;52.902;6.534;2023-10-31T03:15:55;4.60;;;1.52;;
62052;SDS011;48300;52.902;6.534;2023-10-31T03:18:21;4.70;;;1.58;;
62052;SDS011;48300;52.902;6.534;2023-10-31T03:20:48;7.82;;;1.75;;
62052;SDS011;48300;52.902;6.534;2023-10-31T03:23:14;4.03;;;1.25;;
62052;SDS011;48300;52.902;6.534;2023-10-31T03:25:40;6.13;;;1.48;;
62052;SDS011;48300;52.902;6.534;2023-10-31T03:28:09;7.63;;;1.52;;
62052;SDS011;48300;52.902;6.534;2023-10-31T03:30:43;10.27;;;1.70;;
62052;SDS011;48300;52.902;6.534;2023-10-31T03:33:09;5.72;;;1.67;;
62052;SDS011;48300;52.902;6.534;2023-10-31T03:35:35;4.53;;;1.65;;
62052;SDS011;48300;52.902;6.534;2023-10-31T03:38:01;4.60;;;1.55;;
62052;SDS011;48300;52.902;6.534;2023-10-31T03:40:27;6.45;;;1.77;;
62052;SDS011;48300;52.902;6.534;2023-10-31T03:42:54;6.07;;;1.73;;
62052;SDS011;48300;52.902;6.534;2023-10-31T03:45:20;4.40;;;1.27;;
62052;SDS011;48300;52.902;6.534;2023-10-31T03:47:45;4.45;;;1.73;;
62052;SDS011;48300;52.902;6.534;2023-10-31T03:50:12;3.95;;;1.05;;
62052;SDS011;48300;52.902;6.534;2023-10-31T03:52:38;2.70;;;1.45;;
62052;SDS011;48300;52.902;6.534;2023-10-31T03:55:04;7.07;;;1.50;;
62052;SDS011;48300;52.902;6.534;2023-10-31T03:57:30;3.60;;;0.98;;
62052;SDS011;48300;52.902;6.534;2023-10-31T03:59:56;3.70;;;1.55;;
62052;SDS011;48300;52.902;6.534;2023-10-31T04:02:22;2.30;;;0.50;;
62052;SDS011;48300;52.902;6.534;2023-10-31T04:04:48;2.55;;;0.70;;
62052;SDS011;48300;52.902;6.534;2023-10-31T04:07:14;2.55;;;1.05;;
62052;SDS011;48300;52.902;6.534;2023-10-31T04:09:40;3.03;;;1.00;;
62052;SDS011;48300;52.902;6.534;2023-10-31T04:12:06;3.22;;;1.30;;
62052;SDS011;48300;52.902;6.534;2023-10-31T04:14:33;4.35;;;1.13;;
62052;SDS011;48300;52.902;6.534;2023-10-31T04:16:59;3.22;;;1.20;;
62052;SDS011;48300;52.902;6.534;2023-10-31T04:19:25;3.72;;;0.95;;
62052;SDS011;48300;52.902;6.534;2023-10-31T04:21:52;2.85;;;1.00;;
62052;SDS011;48300;52.902;6.534;2023-10-31T04:24:18;3.70;;;0.85;;
62052;SDS011;48300;52.902;6.534;2023-10-31T04:26:44;7.28;;;0.80;;
62052;SDS011;48300;52.902;6.534;2023-10-31T04:29:10;2.03;;;0.50;;
62052;SDS011;48300;52.902;6.534;2023-10-31T04:31:36;2.55;;;0.52;;
62052;SDS011;48300;52.902;6.534;2023-10-31T04:34:02;1.75;;;0.40;;
62052;SDS011;48300;52.902;6.534;2023-10-31T04:36:28;1.77;;;0.40;;
62052;SDS011;48300;52.902;6.534;2023-10-31T04:38:54;4.35;;;0.73;;
62052;SDS011;48300;52.902;6.534;2023-10-31T04:41:20;3.53;;;0.52;;
62052;SDS011;48300;52.902;6.534;2023-10-31T04:43:46;1.90;;;0.50;;
62052;SDS011;48300;52.902;6.534;2023-10-31T04:46:12;5.82;;;0.40;;
62052;SDS011;48300;52.902;6.534;2023-10-31T04:48:39;1.70;;;0.40;;
62052;SDS011;48300;52.902;6.534;2023-10-31T04:51:05;3.28;;;0.60;;
62052;SDS011;48300;52.902;6.534;2023-10-31T04:53:31;2.40;;;0.50;;
62052;SDS011;48300;52.902;6.534;2023-10-31T04:55:58;3.88;;;0.50;;
62052;SDS011;48300;52.902;6.534;2023-10-31T04:58:24;3.00;;;0.95;;
62052;SDS011;48300;52.902;6.534;2023-10-31T05:00:50;2.80;;;0.50;;
62052;SDS011;48300;52.902;6.534;2023-10-31T05:03:16;2.45;;;0.40;;
62052;SDS011;48300;52.902;6.534;2023-10-31T05:05:42;2.20;;;0.50;;
62052;SDS011;48300;52.902;6.534;2023-10-31T05:08:08;1.90;;;0.30;;
62052;SDS011;48300;52.902;6.534;2023-10-31T05:10:34;3.78;;;0.65;;
62052;SDS011;48300;52.902;6.534;2023-10-31T05:13:01;2.40;;;0.80;;
62052;SDS011;48300;52.902;6.534;2023-10-31T05:15:30;2.40;;;0.45;;
62052;SDS011;48300;52.902;6.534;2023-10-31T05:17:56;5.05;;;0.60;;
62052;SDS011;48300;52.902;6.534;2023-10-31T05:20:22;5.72;;;0.60;;
62052;SDS011;48300;52.902;6.534;2023-10-31T05:22:48;2.30;;;0.60;;
62052;SDS011;48300;52.902;6.534;2023-10-31T05:25:14;3.45;;;0.70;;
62052;SDS011;48300;52.902;6.534;2023-10-31T05:27:40;3.15;;;0.60;;
62052;SDS011;48300;52.902;6.534;2023-10-31T05:30:06;4.40;;;0.50;;
62052;SDS011;48300;52.902;6.534;2023-10-31T05:32:33;1.88;;;0.40;;
62052;SDS011;48300;52.902;6.534;2023-10-31T05:34:59;4.10;;;0.75;;
62052;SDS011;48300;52.902;6.534;2023-10-31T05:37:25;3.97;;;0.70;;
62052;SDS011;48300;52.902;6.534;2023-10-31T05:39:51;2.22;;;0.60;;
62052;SDS011;48300;52.902;6.534;2023-10-31T05:42:17;3.83;;;0.50;;
62052;SDS011;48300;52.902;6.534;2023-10-31T05:44:45;3.88;;;0.63;;
62052;SDS011;48300;52.902;6.534;2023-10-31T05:47:11;5.10;;;0.80;;
62052;SDS011;48300;52.902;6.534;2023-10-31T05:49:37;2.58;;;0.50;;
62052;SDS011;48300;52.902;6.534;2023-10-31T05:52:03;5.00;;;0.80;;
62052;SDS011;48300;52.902;6.534;2023-10-31T05:54:29;5.80;;;0.60;;
62052;SDS011;48300;52.902;6.534;2023-10-31T05:56:55;2.15;;;0.70;;
62052;SDS011;48300;52.902;6.534;2023-10-31T05:59:21;5.57;;;0.77;;
62052;SDS011;48300;52.902;6.534;2023-10-31T06:01:47;2.13;;;0.85;;
62052;SDS011;48300;52.902;6.534;2023-10-31T06:04:15;3.77;;;0.97;;
62052;SDS011;48300;52.902;6.534;2023-10-31T06:06:41;5.00;;;0.90;;
62052;SDS011;48300;52.902;6.534;2023-10-31T06:09:07;5.10;;;1.30;;
62052;SDS011;48300;52.902;6.534;2023-10-31T06:11:35;4.35;;;0.68;;
62052;SDS011;48300;52.902;6.534;2023-10-31T06:14:01;3.15;;;0.60;;
62052;SDS011;48300;52.902;6.534;2023-10-31T06:16:27;3.85;;;0.60;;
62052;SDS011;48300;52.902;6.534;2023-10-31T06:18:53;3.75;;;0.90;;
62052;SDS011;48300;52.902;6.534;2023-10-31T06:21:19;5.85;;;0.90;;
62052;SDS011;48300;52.902;6.534;2023-10-31T06:23:45;1.23;;;0.60;;
62052;SDS011;48300;52.902;6.534;2023-10-31T06:26:11;3.90;;;0.93;;
62052;SDS011;48300;52.902;6.534;2023-10-31T06:28:37;4.63;;;1.15;;
62052;SDS011;48300;52.902;6.534;2023-10-31T06:31:05;2.20;;;0.80;;
62052;SDS011;48300;52.902;6.534;2023-10-31T06:33:31;1.90;;;0.70;;
62052;SDS011;48300;52.902;6.534;2023-10-31T06:35:57;2.67;;;0.82;;
62052;SDS011;48300;52.902;6.534;2023-10-31T06:38:23;6.10;;;1.17;;
62052;SDS011;48300;52.902;6.534;2023-10-31T06:40:49;1.95;;;1.00;;
62052;SDS011;48300;52.902;6.534;2023-10-31T06:43:15;5.32;;;1.00;;
62052;SDS011;48300;52.902;6.534;2023-10-31T06:45:41;2.80;;;1.27;;
62052;SDS011;48300;52.902;6.534;2023-10-31T06:48:07;7.53;;;1.80;;
62052;SDS011;48300;52.902;6.534;2023-10-31T06:50:34;5.90;;;1.45;;
62052;SDS011;48300;52.902;6.534;2023-10-31T06:53:00;5.50;;;1.50;;
62052;SDS011;48300;52.902;6.534;2023-10-31T06:55:26;4.63;;;2.28;;
62052;SDS011;48300;52.902;6.534;2023-10-31T06:57:52;4.10;;;1.75;;
62052;SDS011;48300;52.902;6.534;2023-10-31T07:00:18;10.13;;;3.30;;
62052;SDS011;48300;52.902;6.534;2023-10-31T07:02:44;4.55;;;2.13;;
62052;SDS011;48300;52.902;6.534;2023-10-31T07:05:10;5.70;;;2.55;;
62052;SDS011;48300;52.902;6.534;2023-10-31T07:07:36;5.55;;;2.50;;
62052;SDS011;48300;52.902;6.534;2023-10-31T07:10:02;7.35;;;3.10;;
62052;SDS011;48300;52.902;6.534;2023-10-31T07:12:28;9.57;;;3.20;;
62052;SDS011;48300;52.902;6.534;2023-10-31T07:14:54;5.18;;;2.90;;
62052;SDS011;48300;52.902;6.534;2023-10-31T07:17:23;6.82;;;2.60;;
62052;SDS011;48300;52.902;6.534;2023-10-31T07:19:49;8.00;;;3.47;;
62052;SDS011;48300;52.902;6.534;2023-10-31T07:22:15;5.30;;;3.45;;
62052;SDS011;48300;52.902;6.534;2023-10-31T07:24:41;8.60;;;3.47;;
62052;SDS011;48300;52.902;6.534;2023-10-31T07:27:08;10.32;;;4.07;;
62052;SDS011;48300;52.902;6.534;2023-10-31T07:29:34;12.98;;;3.67;;
62052;SDS011;48300;52.902;6.534;2023-10-31T07:32:00;6.53;;;3.45;;
62052;SDS011;48300;52.902;6.534;2023-10-31T07:34:26;11.02;;;3.60;;
62052;SDS011;48300;52.902;6.534;2023-10-31T07:36:52;5.40;;;3.40;;
62052;SDS011;48300;52.902;6.534;2023-10-31T07:39:18;6.68;;;3.15;;
62052;SDS011;48300;52.902;6.534;2023-10-31T07:41:44;5.50;;;3.13;;
62052;SDS011;48300;52.902;6.534;2023-10-31T07:44:10;4.75;;;2.45;;
62052;SDS011;48300;52.902;6.534;2023-10-31T07:46:36;6.85;;;2.80;;
62052;SDS011;48300;52.902;6.534;2023-10-31T07:49:02;11.25;;;2.63;;
62052;SDS011;48300;52.902;6.534;2023-10-31T07:51:28;5.38;;;2.15;;
62052;SDS011;48300;52.902;6.534;2023-10-31T07:53:54;5.20;;;2.20;;
62052;SDS011;48300;52.902;6.534;2023-10-31T07:56:20;7.20;;;1.63;;
62052;SDS011;48300;52.902;6.534;2023-10-31T07:58:51;4.93;;;1.63;;
62052;SDS011;48300;52.902;6.534;2023-10-31T08:01:20;2.97;;;1.30;;
62052;SDS011;48300;52.902;6.534;2023-10-31T08:03:46;5.30;;;1.33;;
62052;SDS011;48300;52.902;6.534;2023-10-31T08:06:13;3.22;;;0.90;;
62052;SDS011;48300;52.902;6.534;2023-10-31T08:08:39;6.05;;;0.93;;
62052;SDS011;48300;52.902;6.534;2023-10-31T08:11:08;3.45;;;0.68;;
62052;SDS011;48300;52.902;6.534;2023-10-31T08:13:34;4.32;;;0.60;;
62052;SDS011;48300;52.902;6.534;2023-10-31T08:16:00;4.20;;;0.52;;
62052;SDS011;48300;52.902;6.534;2023-10-31T08:18:26;4.43;;;0.60;;
62052;SDS011;48300;52.902;6.534;2023-10-31T08:20:52;1.58;;;0.43;;
62052;SDS011;48300;52.902;6.534;2023-10-31T08:23:18;4.85;;;0.50;;
62052;SDS011;48300;52.902;6.534;2023-10-31T08:25:44;4.90;;;0.50;;
62052;SDS011;48300;52.902;6.534;2023-10-31T08:28:11;5.13;;;0.57;;
62052;SDS011;48300;52.902;6.534;2023-10-31T08:30:37;4.03;;;0.60;;
62052;SDS011;48300;52.902;6.534;2023-10-31T08:33:04;7.07;;;0.70;;
62052;SDS011;48300;52.902;6.534;2023-10-31T08:35:30;3.53;;;0.52;;
62052;SDS011;48300;52.902;6.534;2023-10-31T08:37:57;3.40;;;1.08;;
62052;SDS011;48300;52.902;6.534;2023-10-31T08:40:23;3.92;;;0.70;;
62052;SDS011;48300;52.902;6.534;2023-10-31T08:42:49;4.93;;;0.50;;
62052;SDS011;48300;52.902;6.534;2023-10-31T08:45:15;4.03;;;0.50;;
62052;SDS011;48300;52.902;6.534;2023-10-31T08:47:41;9.98;;;0.60;;
62052;SDS011;48300;52.902;6.534;2023-10-31T08:50:07;4.25;;;0.25;;
62052;SDS011;48300;52.902;6.534;2023-10-31T08:52:34;4.32;;;0.45;;
62052;SDS011;48300;52.902;6.534;2023-10-31T08:55:00;2.67;;;0.60;;
62052;SDS011;48300;52.902;6.534;2023-10-31T08:57:26;2.97;;;0.30;;
62052;SDS011;48300;52.902;6.534;2023-10-31T08:59:52;4.07;;;0.50;;
62052;SDS011;48300;52.902;6.534;2023-10-31T09:02:18;9.63;;;0.40;;
62052;SDS011;48300;52.902;6.534;2023-10-31T09:04:44;4.95;;;0.30;;
62052;SDS011;48300;52.902;6.534;2023-10-31T09:07:10;4.70;;;0.30;;
62052;SDS011;48300;52.902;6.534;2023-10-31T09:09:36;2.10;;;0.20;;
62052;SDS011;48300;52.902;6.534;2023-10-31T09:12:02;2.58;;;0.20;;
62052;SDS011;48300;52.902;6.534;2023-10-31T09:14:28;4.43;;;0.30;;
62052;SDS011;48300;52.902;6.534;2023-10-31T09:16:54;4.82;;;0.40;;
62052;SDS011;48300;52.902;6.534;2023-10-31T09:19:20;4.55;;;0.30;;
62052;SDS011;48300;52.902;6.534;2023-10-31T09:21:46;4.63;;;0.40;;
62052;SDS011;48300;52.902;6.534;2023-10-31T09:24:12;2.90;;;0.30;;
62052;SDS011;48300;52.902;6.534;2023-10-31T09:26:41;2.90;;;0.20;;
62052;SDS011;48300;52.902;6.534;2023-10-31T09:29:08;4.45;;;0.30;;
62052;SDS011;48300;52.902;6.534;2023-10-31T09:31:34;4.22;;;0.30;;
62052;SDS011;48300;52.902;6.534;2023-10-31T09:34:00;6.55;;;0.80;;
62052;SDS011;48300;52.902;6.534;2023-10-31T09:36:28;1.65;;;0.22;;
62052;SDS011;48300;52.902;6.534;2023-10-31T09:38:54;4.70;;;0.40;;
62052;SDS011;48300;52.902;6.534;2023-10-31T09:41:20;3.63;;;0.30;;
62052;SDS011;48300;52.902;6.534;2023-10-31T09:43:46;1.27;;;0.20;;
62052;SDS011;48300;52.902;6.534;2023-10-31T09:46:12;1.25;;;0.20;;
62052;SDS011;48300;52.902;6.534;2023-10-31T09:48:38;2.83;;;0.10;;
62052;SDS011;48300;52.902;6.534;2023-10-31T09:51:05;3.20;;;0.20;;
62052;SDS011;48300;52.902;6.534;2023-10-31T09:53:31;1.38;;;0.30;;
62052;SDS011;48300;52.902;6.534;2023-10-31T09:55:59;3.83;;;1.10;;
62052;SDS011;48300;52.902;6.534;2023-10-31T09:58:25;2.78;;;1.00;;
62052;SDS011;48300;52.902;6.534;2023-10-31T10:00:51;3.85;;;0.93;;
62052;SDS011;48300;52.902;6.534;2023-10-31T10:03:17;1.90;;;0.10;;
62052;SDS011;48300;52.902;6.534;2023-10-31T10:05:43;1.85;;;0.20;;
62052;SDS011;48300;52.902;6.534;2023-10-31T10:08:10;0.98;;;0.13;;
62052;SDS011;48300;52.902;6.534;2023-10-31T10:10:36;1.23;;;0.10;;
62052;SDS011;48300;52.902;6.534;2023-10-31T10:13:02;0.85;;;0.20;;
62052;SDS011;48300;52.902;6.534;2023-10-31T10:15:29;3.70;;;0.35;;
62052;SDS011;48300;52.902;6.534;2023-10-31T10:17:55;4.10;;;0.20;;
62052;SDS011;48300;52.902;6.534;2023-10-31T10:20:21;5.75;;;0.30;;
62052;SDS011;48300;52.902;6.534;2023-10-31T10:22:47;3.70;;;0.40;;
62052;SDS011;48300;52.902;6.534;2023-10-31T10:25:14;5.55;;;0.45;;
62052;SDS011;48300;52.902;6.534;2023-10-31T10:27:49;2.15;;;0.55;;
62052;SDS011;48300;52.902;6.534;2023-10-31T10:30:15;1.33;;;0.15;;
62052;SDS011;48300;52.902;6.534;2023-10-31T10:32:41;4.45;;;0.35;;
62052;SDS011;48300;52.902;6.534;2023-10-31T10:35:07;3.78;;;0.38;;
62052;SDS011;48300;52.902;6.534;2023-10-31T10:37:37;2.75;;;0.80;;
62052;SDS011;48300;52.902;6.534;2023-10-31T10:40:05;3.05;;;0.28;;
62052;SDS011;48300;52.902;6.534;2023-10-31T10:42:32;3.45;;;0.77;;
62052;SDS011;48300;52.902;6.534;2023-10-31T10:45:02;1.98;;;0.38;;
62052;SDS011;48300;52.902;6.534;2023-10-31T10:47:29;4.22;;;0.50;;
62052;SDS011;48300;52.902;6.534;2023-10-31T10:49:58;2.28;;;0.20;;
62052;SDS011;48300;52.902;6.534;2023-10-31T10:57:42;3.17;;;0.85;;
62052;SDS011;48300;52.902;6.534;2023-10-31T11:00:10;3.20;;;0.30;;
62052;SDS011;48300;52.902;6.534;2023-10-31T11:02:39;8.32;;;0.30;;
62052;SDS011;48300;52.902;6.534;2023-10-31T11:05:08;2.80;;;0.13;;
62052;SDS011;48300;52.902;6.534;2023-10-31T11:07:38;2.20;;;0.20;;
62052;SDS011;48300;52.902;6.534;2023-10-31T11:10:04;4.28;;;0.40;;
62052;SDS011;48300;52.902;6.534;2023-10-31T11:12:31;3.33;;;0.30;;
62052;SDS011;48300;52.902;6.534;2023-10-31T11:14:58;2.58;;;0.25;;
62052;SDS011;48300;52.902;6.534;2023-10-31T11:17:27;4.90;;;0.38;;
62052;SDS011;48300;52.902;6.534;2023-10-31T11:19:54;5.43;;;0.25;;
62052;SDS011;48300;52.902;6.534;2023-10-31T11:22:21;4.75;;;0.75;;
62052;SDS011;48300;52.902;6.534;2023-10-31T11:24:48;3.65;;;0.20;;
62052;SDS011;48300;52.902;6.534;2023-10-31T11:27:14;3.87;;;0.40;;
62052;SDS011;48300;52.902;6.534;2023-10-31T11:29:42;2.95;;;0.20;;
62052;SDS011;48300;52.902;6.534;2023-10-31T11:32:11;2.80;;;0.38;;
62052;SDS011;48300;52.902;6.534;2023-10-31T11:34:38;1.58;;;0.30;;
62052;SDS011;48300;52.902;6.534;2023-10-31T11:37:24;2.42;;;0.40;;
62052;SDS011;48300;52.902;6.534;2023-10-31T11:42:36;2.35;;;0.20;;
62052;SDS011;48300;52.902;6.534;2023-10-31T11:45:02;6.15;;;0.40;;
62052;SDS011;48300;52.902;6.534;2023-10-31T11:47:44;2.85;;;0.32;;
62052;SDS011;48300;52.902;6.534;2023-10-31T11:50:10;1.80;;;0.28;;
62052;SDS011;48300;52.902;6.534;2023-10-31T11:52:36;7.47;;;0.30;;
62052;SDS011;48300;52.902;6.534;2023-10-31T11:55:03;3.08;;;0.40;;
62052;SDS011;48300;52.902;6.534;2023-10-31T11:57:29;2.67;;;0.40;;
62052;SDS011;48300;52.902;6.534;2023-10-31T11:59:55;4.97;;;0.20;;
62052;SDS011;48300;52.902;6.534;2023-10-31T12:02:21;4.70;;;0.38;;
62052;SDS011;48300;52.902;6.534;2023-10-31T12:04:47;1.20;;;0.22;;
62052;SDS011;48300;52.902;6.534;2023-10-31T12:07:13;2.58;;;0.20;;
62052;SDS011;48300;52.902;6.534;2023-10-31T12:09:45;2.60;;;0.38;;
62052;SDS011;48300;52.902;6.534;2023-10-31T12:12:11;2.28;;;0.32;;
62052;SDS011;48300;52.902;6.534;2023-10-31T12:14:37;2.00;;;0.20;;
62052;SDS011;48300;52.902;6.534;2023-10-31T12:17:04;2.30;;;0.32;;
62052;SDS011;48300;52.902;6.534;2023-10-31T12:19:31;8.95;;;1.58;;
62052;SDS011;48300;52.902;6.534;2023-10-31T12:21:57;3.83;;;0.32;;
62052;SDS011;48300;52.902;6.534;2023-10-31T12:24:23;2.38;;;0.20;;
62052;SDS011;48300;52.902;6.534;2023-10-31T12:26:49;2.03;;;0.30;;
62052;SDS011;48300;52.902;6.534;2023-10-31T12:34:09;1.58;;;0.15;;
62052;SDS011;48300;52.902;6.534;2023-10-31T12:36:35;3.35;;;0.40;;
62052;SDS011;48300;52.902;6.534;2023-10-31T12:39:02;7.60;;;0.40;;
62052;SDS011;48300;52.902;6.534;2023-10-31T12:41:28;2.50;;;0.40;;
62052;SDS011;48300;52.902;6.534;2023-10-31T12:43:54;3.45;;;0.73;;
62052;SDS011;48300;52.902;6.534;2023-10-31T12:46:24;4.70;;;0.50;;
62052;SDS011;48300;52.902;6.534;2023-10-31T12:48:51;4.88;;;0.40;;
62052;SDS011;48300;52.902;6.534;2023-10-31T12:51:17;4.15;;;0.38;;
62052;SDS011;48300;52.902;6.534;2023-10-31T12:53:48;7.15;;;0.30;;
62052;SDS011;48300;52.902;6.534;2023-10-31T12:56:34;3.85;;;0.30;;
62052;SDS011;48300;52.902;6.534;2023-10-31T12:59:00;2.80;;;0.20;;
62052;SDS011;48300;52.902;6.534;2023-10-31T13:01:26;2.33;;;0.25;;
62052;SDS011;48300;52.902;6.534;2023-10-31T13:03:52;5.75;;;0.40;;
62052;SDS011;48300;52.902;6.534;2023-10-31T13:06:19;2.10;;;0.40;;
62052;SDS011;48300;52.902;6.534;2023-10-31T13:08:45;3.20;;;0.20;;
62052;SDS011;48300;52.902;6.534;2023-10-31T13:11:13;2.88;;;0.47;;
62052;SDS011;48300;52.902;6.534;2023-10-31T13:13:39;5.03;;;0.40;;
62052;SDS011;48300;52.902;6.534;2023-10-31T13:16:05;2.00;;;0.40;;
62052;SDS011;48300;52.902;6.534;2023-10-31T13:18:31;3.50;;;0.45;;
62052;SDS011;48300;52.902;6.534;2023-10-31T13:20:57;3.15;;;0.32;;
62052;SDS011;48300;52.902;6.534;2023-10-31T13:23:23;3.40;;;0.45;;
62052;SDS011;48300;52.902;6.534;2023-10-31T13:25:49;4.07;;;0.40;;
62052;SDS011;48300;52.902;6.534;2023-10-31T13:28:15;3.90;;;0.52;;
62052;SDS011;48300;52.902;6.534;2023-10-31T13:30:41;3.95;;;0.20;;
62052;SDS011;48300;52.902;6.534;2023-10-31T13:33:07;3.20;;;0.30;;
62052;SDS011;48300;52.902;6.534;2023-10-31T13:35:33;2.92;;;0.30;;
62052;SDS011;48300;52.902;6.534;2023-10-31T13:37:59;2.85;;;0.30;;
62052;SDS011;48300;52.902;6.534;2023-10-31T13:40:25;3.60;;;0.20;;
62052;SDS011;48300;52.902;6.534;2023-10-31T13:42:51;2.13;;;0.43;;
62052;SDS011;48300;52.902;6.534;2023-10-31T13:45:18;2.42;;;0.25;;
62052;SDS011;48300;52.902;6.534;2023-10-31T13:47:44;5.38;;;0.40;;
62052;SDS011;48300;52.902;6.534;2023-10-31T13:50:10;1.20;;;0.20;;
62052;SDS011;48300;52.902;6.534;2023-10-31T13:52:36;1.95;;;0.20;;
62052;SDS011;48300;52.902;6.534;2023-10-31T13:55:04;5.03;;;0.40;;
62052;SDS011;48300;52.902;6.534;2023-10-31T13:57:30;4.13;;;0.30;;
62052;SDS011;48300;52.902;6.534;2023-10-31T13:59:56;4.15;;;0.38;;
62052;SDS011;48300;52.902;6.534;2023-10-31T14:02:25;5.47;;;0.32;;
62052;SDS011;48300;52.902;6.534;2023-10-31T14:04:53;2.60;;;0.25;;
62052;SDS011;48300;52.902;6.534;2023-10-31T14:07:22;3.17;;;0.30;;
62052;SDS011;48300;52.902;6.534;2023-10-31T14:09:49;1.13;;;0.20;;
62052;SDS011;48300;52.902;6.534;2023-10-31T14:12:16;1.73;;;0.20;;
62052;SDS011;48300;52.902;6.534;2023-10-31T14:14:42;2.50;;;0.30;;
62052;SDS011;48300;52.902;6.534;2023-10-31T14:17:08;1.10;;;0.20;;
62052;SDS011;48300;52.902;6.534;2023-10-31T14:19:34;4.82;;;0.20;;
62052;SDS011;48300;52.902;6.534;2023-10-31T14:22:00;12.27;;;0.73;;
62052;SDS011;48300;52.902;6.534;2023-10-31T14:24:26;5.28;;;0.30;;
62052;SDS011;48300;52.902;6.534;2023-10-31T14:26:52;2.42;;;0.20;;
62052;SDS011;48300;52.902;6.534;2023-10-31T14:29:19;4.15;;;0.25;;
62052;SDS011;48300;52.902;6.534;2023-10-31T14:31:46;5.97;;;0.50;;
62052;SDS011;48300;52.902;6.534;2023-10-31T14:34:12;1.98;;;0.47;;
62052;SDS011;48300;52.902;6.534;2023-10-31T14:36:38;2.22;;;0.40;;
62052;SDS011;48300;52.902;6.534;2023-10-31T14:39:04;1.90;;;0.40;;
62052;SDS011;48300;52.902;6.534;2023-10-31T14:41:30;2.58;;;1.00;;
62052;SDS011;48300;52.902;6.534;2023-10-31T14:43:58;2.33;;;0.30;;
62052;SDS011;48300;52.902;6.534;2023-10-31T14:46:25;6.53;;;0.73;;
62052;SDS011;48300;52.902;6.534;2023-10-31T14:48:51;3.15;;;0.57;;
62052;SDS011;48300;52.902;6.534;2023-10-31T14:51:17;3.45;;;0.60;;
62052;SDS011;48300;52.902;6.534;2023-10-31T14:53:43;6.90;;;0.60;;
62052;SDS011;48300;52.902;6.534;2023-10-31T14:56:09;2.95;;;0.40;;